createdAt,value
2022-09-28T00:00:09.129Z,99003.50
2022-09-28T00:00:37.564Z,98998.50
2022-09-28T00:00:59.148Z,98999.59
2022-09-28T00:01:24.611Z,99000.63
2022-09-28T00:01:46.530Z,98992.44
2022-09-28T00:02:08.673Z,98994.13
2022-09-28T00:02:32.373Z,98997.53
2022-09-28T00:02:56.176Z,98992.97
2022-09-28T00:03:17.822Z,98988.94
2022-09-28T00:03:39.421Z,98998.63
2022-09-28T00:04:02.369Z,98999.34
2022-09-28T00:04:25.434Z,99000.31
2022-09-28T00:04:46.999Z,98998.41
2022-09-28T00:05:08.997Z,99003.63
2022-09-28T00:05:32.722Z,99001.81
2022-09-28T00:06:01.330Z,98993.84
2022-09-28T00:06:24.816Z,99005.22
2022-09-28T00:06:47.375Z,98988.28
2022-09-28T00:07:10.010Z,98997.13
2022-09-28T00:07:31.672Z,98993.50
2022-09-28T00:07:54.014Z,98995.19
2022-09-28T00:08:15.835Z,98999.47
2022-09-28T00:08:38.207Z,98988.72
2022-09-28T00:09:01.858Z,98993.06
2022-09-28T00:09:23.568Z,98993.81
2022-09-28T00:09:45.812Z,98996.47
2022-09-28T00:10:08.142Z,98991.16
2022-09-28T00:10:30.792Z,98993.91
2022-09-28T00:10:55.524Z,98994.38
2022-09-28T00:11:20.715Z,99001.59
2022-09-28T00:11:46.970Z,98994.56
2022-09-28T00:12:11.790Z,98992.53
2022-09-28T00:12:43.225Z,98993.31
2022-09-28T00:13:08.877Z,98997.00
2022-09-28T00:13:36.835Z,98996.06
2022-09-28T00:14:03.399Z,98995.22
2022-09-28T00:14:25.103Z,98993.50
2022-09-28T00:14:46.673Z,98996.06
2022-09-28T00:15:10.030Z,98997.78
2022-09-28T00:15:31.608Z,98994.97
2022-09-28T00:16:00.480Z,98999.47
2022-09-28T00:16:25.502Z,98994.97
2022-09-28T00:16:48.480Z,98990.50
2022-09-28T00:17:10.532Z,98998.41
2022-09-28T00:17:33.417Z,98995.75
2022-09-28T00:17:54.958Z,99002.78
2022-09-28T00:18:16.571Z,98996.59
2022-09-28T00:18:39.139Z,98994.97
2022-09-28T00:19:01.116Z,99001.16
2022-09-28T00:19:22.702Z,99000.97
2022-09-28T00:19:45.919Z,98999.03
2022-09-28T00:20:09.660Z,98992.84
2022-09-28T00:20:31.224Z,98996.28
2022-09-28T00:21:00.325Z,99005.13
2022-09-28T00:21:23.655Z,99005.84
2022-09-28T00:21:46.164Z,99001.28
2022-09-28T00:22:07.738Z,99001.38
2022-09-28T00:22:29.298Z,99009.28
2022-09-28T00:22:50.814Z,99002.25
2022-09-28T00:23:12.413Z,98994.56
2022-09-28T00:23:56.183Z,99004.81
2022-09-28T00:24:19.005Z,99001.38
2022-09-28T00:24:41.424Z,98997.66
2022-09-28T00:25:03.620Z,99007.44
2022-09-28T00:25:26.295Z,98999.59
2022-09-28T00:25:50.226Z,99001.28
2022-09-28T00:26:11.746Z,99005.78
2022-09-28T00:26:33.861Z,99006.72
2022-09-28T00:27:00.595Z,98995.44
2022-09-28T00:27:22.272Z,99009.16
2022-09-28T00:27:49.145Z,98999.34
2022-09-28T00:28:10.734Z,99000.97
2022-09-28T00:28:33.725Z,99003.50
2022-09-28T00:28:58.037Z,98998.19
2022-09-28T00:29:22.793Z,98990.81
2022-09-28T00:29:44.508Z,99005.22
2022-09-28T00:30:08.528Z,99000.00
2022-09-28T00:30:30.407Z,99002.56
2022-09-28T00:30:55.475Z,99005.31
2022-09-28T00:31:17.856Z,99007.44
2022-09-28T00:31:39.521Z,98998.63
2022-09-28T00:32:05.239Z,99004.59
2022-09-28T00:32:27.920Z,99002.03
2022-09-28T00:32:49.755Z,98998.63
2022-09-28T00:33:11.492Z,99002.44
2022-09-28T00:33:33.996Z,99004.38
2022-09-28T00:33:56.950Z,98997.34
2022-09-28T00:34:19.007Z,98994.13
2022-09-28T00:34:45.671Z,98993.59
2022-09-28T00:35:10.588Z,99002.03
2022-09-28T00:35:32.472Z,99001.91
2022-09-28T00:35:56.560Z,98993.91
2022-09-28T00:36:18.224Z,98999.25
2022-09-28T00:36:43.028Z,98998.59
2022-09-28T00:37:08.803Z,99005.66
2022-09-28T00:37:30.386Z,98995.09
2022-09-28T00:37:52.319Z,98993.09
2022-09-28T00:38:16.624Z,98992.22
2022-09-28T00:38:40.524Z,98996.56
2022-09-28T00:39:09.513Z,98993.91
2022-09-28T00:39:31.698Z,99000.09
2022-09-28T00:39:53.616Z,98993.59
2022-09-28T00:40:16.397Z,98997.97
2022-09-28T00:40:38.099Z,98992.75
2022-09-28T00:41:00.206Z,98986.69
2022-09-28T00:41:22.239Z,98995.44
2022-09-28T00:41:45.947Z,98990.28
2022-09-28T00:42:13.491Z,98995.84
2022-09-28T00:42:35.089Z,98999.13
2022-09-28T00:42:56.696Z,98986.91
2022-09-28T00:43:20.393Z,98990.72
2022-09-28T00:43:42.464Z,98993.09
2022-09-28T00:44:32.205Z,98989.34
2022-09-28T00:45:10.862Z,98988.47
2022-09-28T00:45:33.509Z,98986.78
2022-09-28T00:46:01.607Z,98993.72
2022-09-28T00:46:33.028Z,98992.22
2022-09-28T00:46:58.053Z,98989.88
2022-09-28T00:47:44.694Z,98987.94
2022-09-28T00:48:07.152Z,98990.06
2022-09-28T00:48:33.934Z,98978.97
2022-09-28T00:48:58.772Z,98988.34
2022-09-28T00:49:29.537Z,98990.06
2022-09-28T00:49:56.800Z,98985.91
2022-09-28T00:50:26.918Z,98995.31
2022-09-28T00:50:50.024Z,98984.56
2022-09-28T00:51:12.989Z,98957.25
2022-09-28T00:51:37.153Z,98984.66
2022-09-28T00:51:59.916Z,98988.28
2022-09-28T00:52:28.013Z,98987.63
2022-09-28T00:52:56.644Z,98985.28
2022-09-28T00:53:24.166Z,98984.13
2022-09-28T00:53:47.116Z,98982.19
2022-09-28T00:54:10.224Z,98978.56
2022-09-28T00:54:32.169Z,98973.25
2022-09-28T00:54:55.921Z,98984.44
2022-09-28T00:55:21.801Z,98964.38
2022-09-28T00:55:48.429Z,98975.25
2022-09-28T00:56:17.337Z,98968.97
2022-09-28T00:56:42.000Z,98978.69
2022-09-28T00:57:04.665Z,98979.44
2022-09-28T00:57:26.836Z,98986.34
2022-09-28T00:57:55.122Z,98972.59
2022-09-28T00:58:21.279Z,98965.59
2022-09-28T00:58:46.860Z,98973.88
2022-09-28T00:59:09.421Z,98975.69
2022-09-28T00:59:32.913Z,98960.13
2022-09-28T00:59:55.209Z,98971.44
2022-09-28T01:00:16.961Z,98972.28
2022-09-28T01:00:40.883Z,98969.59
2022-09-28T01:01:04.813Z,98956.84
2022-09-28T01:01:27.520Z,98967.59
2022-09-28T01:01:49.295Z,98966.84
2022-09-28T01:02:11.188Z,98962.38
2022-09-28T01:02:33.851Z,98972.19
2022-09-28T01:02:56.191Z,98968.78
2022-09-28T01:03:19.534Z,98969.59
2022-09-28T01:03:45.181Z,98968.66
2022-09-28T01:04:08.180Z,98974.00
2022-09-28T01:04:30.970Z,98968.78
2022-09-28T01:04:53.742Z,98962.94
2022-09-28T01:05:17.645Z,98971.22
2022-09-28T01:05:42.323Z,98969.41
2022-09-28T01:06:06.853Z,98967.59
2022-09-28T01:06:33.161Z,98969.50
2022-09-28T01:06:57.137Z,98967.81
2022-09-28T01:07:18.950Z,98970.28
2022-09-28T01:07:42.149Z,98969.31
2022-09-28T01:08:04.763Z,98965.81
2022-09-28T01:08:28.072Z,98966.66
2022-09-28T01:08:52.393Z,98963.00
2022-09-28T01:09:16.160Z,98966.66
2022-09-28T01:09:39.211Z,98966.75
2022-09-28T01:10:01.460Z,98965.38
2022-09-28T01:10:23.003Z,98966.31
2022-09-28T01:10:45.568Z,98957.69
2022-09-28T01:11:07.525Z,98966.22
2022-09-28T01:11:31.239Z,98968.78
2022-09-28T01:11:53.021Z,98958.56
2022-09-28T01:12:16.188Z,98965.13
2022-09-28T01:12:37.772Z,98968.97
2022-09-28T01:12:59.489Z,98967.94
2022-09-28T01:13:23.495Z,98953.41
2022-09-28T01:13:48.689Z,98967.28
2022-09-28T01:14:14.026Z,98976.03
2022-09-28T01:14:36.069Z,98968.97
2022-09-28T01:15:00.440Z,98971.97
2022-09-28T01:15:24.636Z,98964.59
2022-09-28T01:15:58.442Z,98965.38
2022-09-28T01:16:28.842Z,98967.06
2022-09-28T01:17:01.156Z,98968.66
2022-09-28T01:17:41.036Z,98963.47
2022-09-28T01:18:11.477Z,98967.72
2022-09-28T01:18:47.295Z,98967.06
2022-09-28T01:19:41.985Z,98966.31
2022-09-28T01:20:33.941Z,98971.00
2022-09-28T01:21:02.370Z,98969.22
2022-09-28T01:21:25.197Z,98963.03
2022-09-28T01:21:51.951Z,98969.41
2022-09-28T01:22:27.188Z,98964.59
2022-09-28T01:23:33.404Z,98966.31
2022-09-28T01:24:30.189Z,98965.59
2022-09-28T01:25:01.015Z,98970.69
2022-09-28T01:25:31.377Z,98961.22
2022-09-28T01:25:55.486Z,98960.59
2022-09-28T01:26:35.166Z,98968.97
2022-09-28T01:27:06.201Z,98967.28
2022-09-28T01:27:32.395Z,98962.06
2022-09-28T01:27:57.441Z,98961.53
2022-09-28T01:28:23.603Z,98962.81
2022-09-28T01:28:48.731Z,98967.06
2022-09-28T01:29:18.503Z,98966.66
2022-09-28T01:29:57.337Z,98963.00
2022-09-28T01:30:21.178Z,98965.47
2022-09-28T01:30:52.134Z,98969.00
2022-09-28T01:31:16.176Z,98967.19
2022-09-28T01:31:41.843Z,98968.84
2022-09-28T01:32:16.150Z,98958.44
2022-09-28T01:32:48.850Z,98963.75
2022-09-28T01:33:14.430Z,98962.03
2022-09-28T01:33:43.556Z,98955.75
2022-09-28T01:34:15.954Z,98958.53
2022-09-28T01:34:42.616Z,98956.72
2022-09-28T01:35:10.978Z,98965.56
2022-09-28T01:35:36.880Z,98965.88
2022-09-28T01:36:06.120Z,98959.91
2022-09-28T01:36:33.193Z,98956.19
2022-09-28T01:37:02.481Z,98962.28
2022-09-28T01:37:29.001Z,98957.91
2022-09-28T01:37:54.400Z,98959.59
2022-09-28T01:38:22.161Z,98962.38
2022-09-28T01:38:49.393Z,98963.00
2022-09-28T01:39:16.617Z,98959.38
2022-09-28T01:39:42.640Z,98966.09
2022-09-28T01:40:09.754Z,98965.25
2022-09-28T01:40:32.581Z,98957.44
2022-09-28T01:40:56.673Z,98963.44
2022-09-28T01:41:20.465Z,98966.84
2022-09-28T01:41:48.077Z,98956.19
2022-09-28T01:42:16.356Z,98966.66
2022-09-28T01:42:41.272Z,98946.94
2022-09-28T01:43:06.654Z,98963.84
2022-09-28T01:43:31.036Z,98950.00
2022-09-28T01:43:56.798Z,98962.03
2022-09-28T01:44:21.395Z,98963.66
2022-09-28T01:44:48.306Z,98964.63
2022-09-28T01:45:17.112Z,98964.53
2022-09-28T01:45:44.220Z,98965.38
2022-09-28T01:46:13.403Z,98963.44
2022-09-28T01:46:38.216Z,98967.91
2022-09-28T01:47:04.459Z,98960.69
2022-09-28T01:47:31.402Z,98963.44
2022-09-28T01:47:58.161Z,98953.00
2022-09-28T01:48:27.347Z,98958.66
2022-09-28T01:48:55.840Z,98961.31
2022-09-28T01:49:21.428Z,98957.69
2022-09-28T01:49:47.633Z,98960.34
2022-09-28T01:50:13.719Z,98954.16
2022-09-28T01:50:39.654Z,98963.88
2022-09-28T01:51:08.132Z,98956.63
2022-09-28T01:51:36.965Z,98954.16
2022-09-28T01:52:04.916Z,98957.78
2022-09-28T01:52:31.914Z,98965.59
2022-09-28T01:52:59.439Z,98953.53
2022-09-28T01:53:27.159Z,98950.13
2022-09-28T01:53:53.375Z,98944.69
2022-09-28T01:54:21.797Z,98958.31
2022-09-28T01:54:53.192Z,98957.47
2022-09-28T01:55:25.861Z,98959.09
2022-09-28T01:55:51.369Z,98951.19
2022-09-28T01:56:17.782Z,98956.28
2022-09-28T01:56:45.503Z,98955.47
2022-09-28T01:57:15.596Z,98961.00
2022-09-28T01:57:42.365Z,98966.13
2022-09-28T01:58:12.981Z,98962.59
2022-09-28T01:58:39.343Z,98947.25
2022-09-28T01:59:07.542Z,98952.38
2022-09-28T01:59:33.041Z,98953.22
2022-09-28T02:00:02.160Z,98954.06
2022-09-28T02:00:25.113Z,98953.22
2022-09-28T02:00:53.387Z,98960.34
2022-09-28T02:01:20.291Z,98954.94
2022-09-28T02:01:48.986Z,98955.88
2022-09-28T02:02:15.691Z,98951.28
2022-09-28T02:02:42.415Z,98947.91
2022-09-28T02:03:09.691Z,98956.50
2022-09-28T02:03:42.211Z,98949.47
2022-09-28T02:04:10.233Z,98948.53
2022-09-28T02:04:37.197Z,98945.63
2022-09-28T02:05:04.333Z,98949.16
2022-09-28T02:05:31.636Z,98948.19
2022-09-28T02:05:57.403Z,98950.88
2022-09-28T02:06:27.410Z,98949.38
2022-09-28T02:06:53.601Z,98953.63
2022-09-28T02:07:20.945Z,98941.47
2022-09-28T02:07:47.258Z,98949.69
2022-09-28T02:08:12.833Z,98953.22
2022-09-28T02:08:38.718Z,98940.84
2022-09-28T02:09:06.186Z,98950.34
2022-09-28T02:09:41.396Z,98950.34
2022-09-28T02:10:09.591Z,98947.81
2022-09-28T02:10:35.880Z,98949.47
2022-09-28T02:11:04.277Z,98950.34
2022-09-28T02:11:26.151Z,98944.69
2022-09-28T02:11:54.152Z,98954.72
2022-09-28T02:12:23.936Z,98957.38
2022-09-28T02:12:51.601Z,98957.16
2022-09-28T02:13:18.232Z,98957.06
2022-09-28T02:13:44.702Z,98956.19
2022-09-28T02:14:10.717Z,98952.56
2022-09-28T02:14:38.582Z,98953.53
2022-09-28T02:15:10.756Z,98956.97
2022-09-28T02:15:41.407Z,98954.28
2022-09-28T02:16:10.122Z,98957.69
2022-09-28T02:16:36.604Z,98956.81
2022-09-28T02:17:00.076Z,98953.22
2022-09-28T02:17:26.337Z,98951.63
2022-09-28T02:17:48.589Z,98943.81
2022-09-28T02:18:10.897Z,98948.19
2022-09-28T02:18:33.102Z,98952.34
2022-09-28T02:18:55.986Z,98956.00
2022-09-28T02:19:20.211Z,98959.38
2022-09-28T02:19:43.671Z,98933.16
2022-09-28T02:20:07.724Z,98962.06
2022-09-28T02:20:32.708Z,98953.44
2022-09-28T02:21:01.147Z,98954.38
2022-09-28T02:21:29.468Z,98956.19
2022-09-28T02:21:57.784Z,98941.63
2022-09-28T02:22:26.450Z,98944.69
2022-09-28T02:22:51.461Z,98956.09
2022-09-28T02:23:13.574Z,98949.06
2022-09-28T02:23:41.092Z,98955.25
2022-09-28T02:24:09.098Z,98944.47
2022-09-28T02:24:37.527Z,98947.25
2022-09-28T02:25:03.305Z,98940.66
2022-09-28T02:25:31.746Z,98950.03
2022-09-28T02:26:00.862Z,98952.59
2022-09-28T02:26:27.177Z,98948.94
2022-09-28T02:26:51.832Z,98957.78
2022-09-28T02:27:20.103Z,98946.19
2022-09-28T02:27:52.660Z,98945.31
2022-09-28T02:28:14.658Z,98953.22
2022-09-28T02:28:38.782Z,98953.94
2022-09-28T02:29:00.812Z,98953.00
2022-09-28T02:29:23.257Z,98954.72
2022-09-28T02:29:44.874Z,98953.84
2022-09-28T02:30:09.639Z,98960.78
2022-09-28T02:30:33.628Z,98957.06
2022-09-28T02:30:55.316Z,98956.19
2022-09-28T02:31:16.984Z,98955.34
2022-09-28T02:31:39.026Z,98962.38
2022-09-28T02:32:01.875Z,98949.38
2022-09-28T02:32:24.521Z,98962.28
2022-09-28T02:32:49.793Z,98962.38
2022-09-28T02:33:13.995Z,98959.72
2022-09-28T02:33:39.392Z,98962.38
2022-09-28T02:34:01.128Z,98957.91
2022-09-28T02:34:22.747Z,98959.94
2022-09-28T02:34:45.697Z,98966.84
2022-09-28T02:35:11.538Z,98958.00
2022-09-28T02:35:35.296Z,98963.22
2022-09-28T02:35:59.885Z,98960.34
2022-09-28T02:36:25.870Z,98957.91
2022-09-28T02:36:47.910Z,98963.00
2022-09-28T02:37:09.490Z,98959.38
2022-09-28T02:37:32.263Z,98961.19
2022-09-28T02:37:55.028Z,98960.47
2022-09-28T02:38:16.869Z,98956.97
2022-09-28T02:38:39.783Z,98956.19
2022-09-28T02:39:02.767Z,98960.56
2022-09-28T02:39:24.662Z,98963.00
2022-09-28T02:39:46.380Z,98962.16
2022-09-28T02:40:15.338Z,98959.72
2022-09-28T02:40:39.295Z,98970.28
2022-09-28T02:41:05.577Z,98957.91
2022-09-28T02:41:41.697Z,98961.31
2022-09-28T02:42:17.128Z,98959.63
2022-09-28T02:42:49.478Z,98962.16
2022-09-28T02:43:18.907Z,98969.19
2022-09-28T02:43:53.932Z,98964.63
2022-09-28T02:44:29.674Z,98960.25
2022-09-28T02:45:05.316Z,98964.72
2022-09-28T02:45:43.512Z,98963.88
2022-09-28T02:46:16.457Z,98962.91
2022-09-28T02:46:53.106Z,98946.72
2022-09-28T02:47:35.620Z,98962.59
2022-09-28T02:48:11.286Z,98967.91
2022-09-28T02:49:04.929Z,98961.72
2022-09-28T02:49:40.252Z,98964.19
2022-09-28T02:50:11.740Z,98966.88
2022-09-28T02:50:43.562Z,98960.69
2022-09-28T02:51:14.538Z,98961.63
2022-09-28T02:51:47.016Z,98962.81
2022-09-28T02:52:39.551Z,98962.59
2022-09-28T02:53:25.996Z,98968.34
2022-09-28T02:54:02.854Z,98960.03
2022-09-28T02:54:48.354Z,98968.69
2022-09-28T02:55:29.733Z,98968.69
2022-09-28T02:56:10.110Z,98973.06
2022-09-28T02:56:48.289Z,98966.88
2022-09-28T02:57:19.561Z,98966.09
2022-09-28T02:57:53.667Z,98964.19
2022-09-28T02:58:25.156Z,98966.97
2022-09-28T02:59:00.007Z,98970.69
2022-09-28T02:59:34.201Z,98964.41
2022-09-28T03:00:05.477Z,98969.84
2022-09-28T03:00:28.176Z,98968.16
2022-09-28T03:00:57.416Z,98965.56
2022-09-28T03:01:26.985Z,98958.84
2022-09-28T03:01:57.223Z,98972.00
2022-09-28T03:02:27.263Z,98972.72
2022-09-28T03:02:59.083Z,98960.34
2022-09-28T03:03:31.780Z,98973.34
2022-09-28T03:03:57.715Z,98962.81
2022-09-28T03:04:30.933Z,98978.56
2022-09-28T03:05:07.564Z,98964.31
2022-09-28T03:05:37.069Z,98966.09
2022-09-28T03:06:03.783Z,98966.97
2022-09-28T03:06:40.231Z,98968.78
2022-09-28T03:07:07.748Z,98968.78
2022-09-28T03:07:34.579Z,98962.59
2022-09-28T03:08:00.711Z,98967.06
2022-09-28T03:08:26.424Z,98966.19
2022-09-28T03:08:53.516Z,98965.34
2022-09-28T03:09:22.300Z,98963.78
2022-09-28T03:09:50.699Z,98963.88
2022-09-28T03:10:17.560Z,98967.19
2022-09-28T03:10:44.257Z,98969.94
2022-09-28T03:11:13.854Z,98964.72
2022-09-28T03:11:40.773Z,98973.88
2022-09-28T03:12:08.591Z,98969.59
2022-09-28T03:12:33.149Z,98967.06
2022-09-28T03:12:58.514Z,98974.94
2022-09-28T03:13:20.795Z,98957.59
2022-09-28T03:13:42.987Z,98965.38
2022-09-28T03:14:06.390Z,98963.66
2022-09-28T03:15:06.245Z,98965.38
2022-09-28T03:15:30.494Z,98964.41
2022-09-28T03:15:52.075Z,98965.38
2022-09-28T03:16:15.951Z,98972.41
2022-09-28T03:16:43.754Z,98970.78
2022-09-28T03:17:05.405Z,98961.00
2022-09-28T03:17:27.934Z,98966.94
2022-09-28T03:17:49.669Z,98966.13
2022-09-28T03:18:11.341Z,98959.41
2022-09-28T03:18:33.984Z,98960.25
2022-09-28T03:18:55.960Z,98964.59
2022-09-28T03:19:20.707Z,98961.75
2022-09-28T03:19:43.400Z,98968.66
2022-09-28T03:20:06.579Z,98964.94
2022-09-28T03:20:30.304Z,98965.91
2022-09-28T03:20:52.932Z,98972.00
2022-09-28T03:21:16.099Z,98963.88
2022-09-28T03:21:38.088Z,98968.34
2022-09-28T03:22:00.338Z,98951.19
2022-09-28T03:22:21.913Z,98967.59
2022-09-28T03:22:55.974Z,98964.94
2022-09-28T03:23:27.099Z,98970.16
2022-09-28T03:23:49.671Z,98957.91
2022-09-28T03:24:11.803Z,98957.81
2022-09-28T03:24:33.396Z,98967.47
2022-09-28T03:24:55.059Z,98964.72
2022-09-28T03:25:17.680Z,98964.63
2022-09-28T03:25:39.456Z,98961.88
2022-09-28T03:26:01.062Z,98967.28
2022-09-28T03:26:22.710Z,98964.53
2022-09-28T03:26:45.363Z,98966.34
2022-09-28T03:27:09.324Z,98964.53
2022-09-28T03:27:30.935Z,98962.06
2022-09-28T03:27:52.597Z,98964.41
2022-09-28T03:28:15.898Z,98971.44
2022-09-28T03:28:38.579Z,98957.25
2022-09-28T03:29:01.423Z,98962.41
2022-09-28T03:29:23.464Z,98960.56
2022-09-28T03:29:51.880Z,98966.88
2022-09-28T03:30:15.259Z,98962.69
2022-09-28T03:30:39.581Z,98958.00
2022-09-28T03:31:02.620Z,98971.75
2022-09-28T03:31:24.366Z,98956.00
2022-09-28T03:31:47.866Z,98964.81
2022-09-28T03:32:09.608Z,98973.03
2022-09-28T03:32:31.251Z,98965.91
2022-09-28T03:32:57.224Z,98962.16
2022-09-28T03:33:21.001Z,98965.81
2022-09-28T03:33:42.582Z,98967.47
2022-09-28T03:34:04.422Z,98958.66
2022-09-28T03:34:27.127Z,98959.63
2022-09-28T03:34:50.077Z,98961.31
2022-09-28T03:35:11.772Z,98966.53
2022-09-28T03:35:33.892Z,98964.72
2022-09-28T03:35:56.140Z,98967.28
2022-09-28T03:36:19.652Z,98963.78
2022-09-28T03:36:41.300Z,98969.00
2022-09-28T03:37:03.985Z,98963.78
2022-09-28T03:37:26.596Z,98958.44
2022-09-28T03:37:48.193Z,98968.16
2022-09-28T03:38:10.750Z,98976.88
2022-09-28T03:38:33.296Z,98964.63
2022-09-28T03:38:56.087Z,98966.44
2022-09-28T03:39:19.077Z,98965.34
2022-09-28T03:39:41.617Z,98969.00
2022-09-28T03:40:04.108Z,98965.56
2022-09-28T03:40:25.976Z,98955.16
2022-09-28T03:40:53.554Z,98967.91
2022-09-28T03:41:16.168Z,98967.91
2022-09-28T03:41:38.479Z,98966.00
2022-09-28T03:42:00.843Z,98967.72
2022-09-28T03:42:23.071Z,98965.88
2022-09-28T03:42:46.644Z,98961.53
2022-09-28T03:43:09.694Z,98964.19
2022-09-28T03:43:32.805Z,98965.88
2022-09-28T03:43:56.793Z,98964.19
2022-09-28T03:44:21.860Z,98966.00
2022-09-28T03:44:43.941Z,98960.69
2022-09-28T03:45:06.561Z,98958.34
2022-09-28T03:45:30.023Z,98969.63
2022-09-28T03:45:53.173Z,98967.91
2022-09-28T03:46:16.013Z,98969.72
2022-09-28T03:46:42.160Z,98960.88
2022-09-28T03:47:04.593Z,98968.00
2022-09-28T03:47:26.173Z,98966.09
2022-09-28T03:47:50.345Z,98964.31
2022-09-28T03:48:13.714Z,98965.34
2022-09-28T03:48:36.146Z,98960.25
2022-09-28T03:48:58.187Z,98964.72
2022-09-28T03:49:20.848Z,98961.09
2022-09-28T03:49:45.572Z,98966.44
2022-09-28T03:50:09.454Z,98965.34
2022-09-28T03:50:31.081Z,98963.66
2022-09-28T03:50:55.038Z,98964.41
2022-09-28T03:51:17.772Z,98967.06
2022-09-28T03:51:39.346Z,98963.53
2022-09-28T03:52:01.369Z,98963.53
2022-09-28T03:52:24.161Z,98959.19
2022-09-28T03:52:45.780Z,98957.50
2022-09-28T03:53:07.918Z,98963.53
2022-09-28T03:53:29.670Z,98954.47
2022-09-28T03:53:52.573Z,98963.66
2022-09-28T03:54:14.168Z,98963.53
2022-09-28T03:54:35.979Z,98963.78
2022-09-28T03:54:57.547Z,98960.16
2022-09-28T03:55:19.163Z,98967.19
2022-09-28T03:55:41.722Z,98972.53
2022-09-28T03:56:04.380Z,98965.25
2022-09-28T03:56:26.986Z,98964.31
2022-09-28T03:56:50.130Z,98948.97
2022-09-28T03:57:11.687Z,98964.31
2022-09-28T03:57:33.384Z,98969.63
2022-09-28T03:57:55.563Z,98968.69
2022-09-28T03:58:17.446Z,98961.53
2022-09-28T03:58:44.074Z,98971.22
2022-09-28T03:59:06.959Z,98965.88
2022-09-28T03:59:28.751Z,98970.25
2022-09-28T03:59:50.359Z,98962.50
2022-09-28T04:00:14.213Z,98965.78
2022-09-28T04:00:37.801Z,98967.59
2022-09-28T04:01:02.994Z,98964.81
2022-09-28T04:01:24.661Z,98956.84
2022-09-28T04:01:50.297Z,98959.41
2022-09-28T04:02:11.966Z,98958.53
2022-09-28T04:02:34.689Z,98962.88
2022-09-28T04:02:57.746Z,98970.06
2022-09-28T04:03:20.328Z,98966.41
2022-09-28T04:03:43.320Z,98969.84
2022-09-28T04:04:05.334Z,98967.28
2022-09-28T04:04:26.992Z,98974.31
2022-09-28T04:04:49.593Z,98972.59
2022-09-28T04:05:12.568Z,98974.31
2022-09-28T04:05:34.185Z,98960.97
2022-09-28T04:05:55.859Z,98968.13
2022-09-28T04:06:17.958Z,98965.34
2022-09-28T04:06:40.801Z,98969.84
2022-09-28T04:07:02.455Z,98964.50
2022-09-28T04:07:26.885Z,98966.41
2022-09-28T04:07:50.600Z,98967.28
2022-09-28T04:08:13.402Z,98969.94
2022-09-28T04:08:36.110Z,98958.66
2022-09-28T04:08:57.796Z,98959.41
2022-09-28T04:09:20.226Z,98959.59
2022-09-28T04:09:41.821Z,98968.34
2022-09-28T04:10:04.898Z,98969.31
2022-09-28T04:10:27.083Z,98966.63
2022-09-28T04:10:48.883Z,98964.81
2022-09-28T04:11:10.510Z,98971.13
2022-09-28T04:11:42.977Z,98965.06
2022-09-28T04:12:15.209Z,98965.88
2022-09-28T04:12:36.811Z,98966.00
2022-09-28T04:13:02.273Z,98966.00
2022-09-28T04:13:24.099Z,98967.91
2022-09-28T04:13:50.535Z,98954.28
2022-09-28T04:14:12.203Z,98961.97
2022-09-28T04:14:33.804Z,98961.53
2022-09-28T04:14:55.358Z,98958.94
2022-09-28T04:15:17.940Z,98965.81
2022-09-28T04:15:39.600Z,98965.56
2022-09-28T04:16:02.021Z,98969.09
2022-09-28T04:16:27.096Z,98968.16
2022-09-28T04:17:09.984Z,98965.47
2022-09-28T04:17:35.486Z,98966.44
2022-09-28T04:17:59.914Z,98969.00
2022-09-28T04:18:43.737Z,98967.19
2022-09-28T04:19:30.356Z,98969.19
2022-09-28T04:20:03.169Z,98960.47
2022-09-28T04:21:06.502Z,98965.56
2022-09-28T04:21:31.953Z,98972.72
2022-09-28T04:22:00.660Z,98969.09
2022-09-28T04:22:23.269Z,98964.72
2022-09-28T04:22:45.895Z,98972.00
2022-09-28T04:23:07.851Z,98974.41
2022-09-28T04:23:30.160Z,98970.28
2022-09-28T04:23:53.079Z,98972.72
2022-09-28T04:24:16.653Z,98972.72
2022-09-28T04:24:38.252Z,98972.63
2022-09-28T04:25:00.848Z,98971.75
2022-09-28T04:25:22.497Z,98975.19
2022-09-28T04:25:48.518Z,98974.19
2022-09-28T04:26:18.520Z,98969.63
2022-09-28T04:26:40.131Z,98967.72
2022-09-28T04:27:22.920Z,98974.72
2022-09-28T04:28:03.397Z,98967.72
2022-09-28T04:28:43.873Z,98972.19
2022-09-28T04:29:19.267Z,98982.84
2022-09-28T04:29:45.199Z,98969.63
2022-09-28T04:30:10.440Z,98975.81
2022-09-28T04:30:32.758Z,98979.34
2022-09-28T04:30:54.388Z,98983.72
2022-09-28T04:31:19.092Z,98977.41
2022-09-28T04:31:44.101Z,98978.38
2022-09-28T04:32:05.925Z,98980.91
2022-09-28T04:32:30.957Z,98977.53
2022-09-28T04:32:53.605Z,98985.19
2022-09-28T04:33:15.284Z,98971.97
2022-09-28T04:33:37.383Z,98985.19
2022-09-28T04:33:59.659Z,98985.91
2022-09-28T04:34:23.607Z,98977.94
2022-09-28T04:34:45.251Z,98978.88
2022-09-28T04:35:09.025Z,98974.31
2022-09-28T04:35:30.605Z,98981.34
2022-09-28T04:35:53.195Z,98985.81
2022-09-28T04:36:14.892Z,98986.69
2022-09-28T04:36:37.074Z,98984.75
2022-09-28T04:36:58.651Z,98976.03
2022-09-28T04:37:21.233Z,98981.34
2022-09-28T04:37:43.064Z,98977.94
2022-09-28T04:38:04.901Z,98978.78
2022-09-28T04:38:48.393Z,98977.06
2022-09-28T04:39:09.411Z,98980.72
2022-09-28T04:39:31.041Z,98979.88
2022-09-28T04:39:52.706Z,98978.16
2022-09-28T04:40:14.625Z,98974.41
2022-09-28T04:40:36.224Z,98973.69
2022-09-28T04:40:58.892Z,98983.25
2022-09-28T04:41:22.274Z,98971.97
2022-09-28T04:41:47.221Z,98971.13
2022-09-28T04:42:10.168Z,98978.16
2022-09-28T04:42:34.704Z,98976.44
2022-09-28T04:42:57.112Z,98972.81
2022-09-28T04:43:19.467Z,98970.88
2022-09-28T04:43:41.370Z,98974.53
2022-09-28T04:44:04.128Z,98972.81
2022-09-28T04:44:27.098Z,98978.16
2022-09-28T04:44:53.970Z,98973.56
2022-09-28T04:45:17.572Z,98975.25
2022-09-28T04:45:40.657Z,98971.88
2022-09-28T04:46:06.220Z,98970.06
2022-09-28T04:46:37.297Z,98968.22
2022-09-28T04:47:17.612Z,98971.13
2022-09-28T04:47:58.015Z,98975.50
2022-09-28T04:48:33.596Z,98971.34
2022-09-28T04:49:24.896Z,98976.75
2022-09-28T04:50:13.647Z,98970.81
2022-09-28T04:50:55.732Z,98975.72
2022-09-28T04:51:19.744Z,98971.44
2022-09-28T04:51:42.279Z,98978.66
2022-09-28T04:52:04.715Z,98980.06
2022-09-28T04:52:27.208Z,98976.66
2022-09-28T04:52:49.744Z,98977.53
2022-09-28T04:53:11.345Z,98978.38
2022-09-28T04:53:34.323Z,98972.81
2022-09-28T04:53:56.937Z,98979.00
2022-09-28T04:54:19.069Z,98975.50
2022-09-28T04:54:42.068Z,98978.06
2022-09-28T04:55:03.985Z,98979.09
2022-09-28T04:55:28.704Z,98977.28
2022-09-28T04:55:58.791Z,98977.53
2022-09-28T04:56:20.484Z,98976.00
2022-09-28T04:56:42.387Z,98982.66
2022-09-28T04:57:05.922Z,98974.41
2022-09-28T04:57:28.844Z,98985.19
2022-09-28T04:57:50.501Z,98979.97
2022-09-28T04:58:12.102Z,98977.50
2022-09-28T04:58:35.638Z,98985.41
2022-09-28T04:58:58.280Z,98983.69
2022-09-28T04:59:20.217Z,98981.03
2022-09-28T04:59:43.204Z,98974.84
2022-09-28T05:00:05.805Z,98973.88
2022-09-28T05:00:35.858Z,98979.97
2022-09-28T05:01:18.902Z,98966.22
2022-09-28T05:01:56.539Z,98978.13
2022-09-28T05:02:56.221Z,98981.78
2022-09-28T05:03:39.844Z,98978.13
2022-09-28T05:04:24.956Z,98976.47
2022-09-28T05:05:21.170Z,98976.66
2022-09-28T05:05:59.353Z,98981.34
2022-09-28T05:06:33.977Z,98984.56